Time;durP1;ratioP1;P1;durP2;ratioP2;P2;SDS_P1;SDS_P2;PMS_P1;PMS_P2;Temp;Humidity;BMP_temperature;BMP_pressure;BME280_temperature;BME280_humidity;BME280_pressure;Samples;Min_cycle;Max_cycle;Signal;HPM_P1;HPM_P2
2022/04/18 00:01:54;;;;;;;20.77;15.55;;;10.10;56.00;;;;;;5030645;28;20048;-83
2022/04/18 00:04:22;;;;;;;18.83;15.25;;;10.10;56.00;;;;;;5027472;28;20045;-82
2022/04/18 00:06:48;;;;;;;19.10;15.20;;;10.10;56.10;;;;;;5012036;28;20063;-84
2022/04/18 00:09:13;;;;;;;18.50;15.57;;;10.00;56.40;;;;;;5032261;28;20137;-82
2022/04/18 00:11:39;;;;;;;18.63;14.77;;;10.00;56.60;;;;;;5030840;28;20167;-82
2022/04/18 00:14:05;;;;;;;18.52;14.93;;;9.90;56.50;;;;;;5032704;28;20064;-82
2022/04/18 00:16:31;;;;;;;17.58;14.45;;;9.90;56.50;;;;;;5030676;28;20397;-84
2022/04/18 00:18:57;;;;;;;20.33;15.75;;;9.90;56.60;;;;;;5028823;28;20484;-81
2022/04/18 00:21:23;;;;;;;19.23;14.45;;;9.90;56.50;;;;;;5031146;28;20051;-83
2022/04/18 00:23:49;;;;;;;18.25;15.43;;;9.90;56.80;;;;;;5011880;28;20380;-83
2022/04/18 00:26:15;;;;;;;20.00;14.90;;;9.90;56.70;;;;;;5030281;28;20062;-82
2022/04/18 00:28:40;;;;;;;17.95;15.13;;;9.90;56.70;;;;;;5030985;28;20708;-83
2022/04/18 00:31:06;;;;;;;17.92;14.65;;;9.80;57.00;;;;;;5028140;28;20047;-84
2022/04/18 00:33:32;;;;;;;19.60;15.23;;;9.80;57.30;;;;;;5030256;28;20107;-82
2022/04/18 00:35:58;;;;;;;18.48;15.07;;;9.80;57.50;;;;;;5030730;28;20045;-84
2022/04/18 00:38:23;;;;;;;18.27;14.52;;;9.70;57.30;;;;;;5031322;28;20049;-84
2022/04/18 00:40:49;;;;;;;18.13;15.13;;;9.70;57.20;;;;;;5013057;28;20396;-81
2022/04/18 00:43:15;;;;;;;20.25;15.15;;;9.80;57.30;;;;;;5030534;28;20041;-84
2022/04/18 00:45:41;;;;;;;19.92;14.98;;;9.70;57.40;;;;;;5029039;28;20048;-82
2022/04/18 00:48:07;;;;;;;20.75;15.20;;;9.70;57.40;;;;;;5029376;28;20477;-82
2022/04/18 00:50:35;;;;;;;18.90;14.65;;;9.70;57.30;;;;;;5030621;28;20045;-84
2022/04/18 00:53:03;;;;;;;19.63;15.18;;;9.70;57.50;;;;;;5016902;28;20485;-83
2022/04/18 00:55:33;;;;;;;17.60;15.15;;;9.70;57.70;;;;;;5020004;28;20045;-84
2022/04/18 00:58:02;;;;;;;18.27;14.57;;;9.60;57.80;;;;;;5031903;28;20029;-81
2022/04/18 01:00:28;;;;;;;19.88;15.02;;;9.60;58.00;;;;;;5028794;28;20046;-82
2022/04/18 01:02:53;;;;;;;19.77;15.27;;;9.60;57.90;;;;;;5027094;28;20045;-83
2022/04/18 01:05:21;;;;;;;17.65;14.77;;;9.60;57.90;;;;;;5028728;28;20111;-82
2022/04/18 01:07:46;;;;;;;16.73;14.60;;;9.60;58.00;;;;;;5030052;28;20046;-83
2022/04/18 01:10:12;;;;;;;17.85;14.27;;;9.60;58.30;;;;;;5029383;28;20046;-82
2022/04/18 01:12:38;;;;;;;16.83;14.55;;;9.60;58.30;;;;;;5029162;28;20129;-83
2022/04/18 01:15:05;;;;;;;16.83;14.65;;;9.50;58.30;;;;;;5032364;28;20050;-81
2022/04/18 01:17:30;;;;;;;16.95;14.15;;;9.50;58.70;;;;;;5033237;28;20444;-82
2022/04/18 01:19:56;;;;;;;19.13;14.82;;;9.50;58.70;;;;;;5051677;28;20032;-82
2022/04/18 01:22:22;;;;;;;19.40;15.38;;;9.50;58.90;;;;;;5036629;28;20275;-82
2022/04/18 01:30:20;;;;;;;17.23;14.23;;;9.30;59.30;;;;;;5033695;28;20053;-81
2022/04/18 01:32:46;;;;;;;18.42;14.65;;;9.30;59.40;;;;;;5030779;28;20596;-82
2022/04/18 01:35:12;;;;;;;20.10;15.02;;;9.30;59.80;;;;;;5025949;28;20049;-82
2022/04/18 01:37:37;;;;;;;16.90;14.88;;;9.30;59.70;;;;;;5009844;28;20049;-82
2022/04/18 01:40:09;;;;;;;18.90;14.65;;;9.30;60.10;;;;;;5028948;28;20049;-84
2022/04/18 01:42:34;;;;;;;17.88;14.32;;;9.30;59.90;;;;;;5027635;28;20048;-82
2022/04/18 01:45:00;;;;;;;16.95;15.10;;;9.20;60.30;;;;;;5027406;28;20120;-83
2022/04/18 01:47:26;;;;;;;17.33;14.52;;;9.20;61.00;;;;;;5029065;28;20555;-80
2022/04/18 01:49:52;;;;;;;17.83;14.85;;;9.20;60.60;;;;;;5027461;28;20068;-82
2022/04/18 01:52:18;;;;;;;19.77;15.38;;;9.20;60.40;;;;;;5024352;28;20104;-82
2022/04/18 01:54:44;;;;;;;20.00;15.52;;;9.10;60.70;;;;;;5027188;28;20410;-83
2022/04/18 01:57:10;;;;;;;18.17;15.02;;;9.10;60.60;;;;;;5026782;28;20124;-83
2022/04/18 01:59:36;;;;;;;19.48;15.55;;;9.10;61.20;;;;;;5011047;28;20103;-83
2022/04/18 02:02:01;;;;;;;20.30;15.68;;;9.10;61.50;;;;;;5020554;28;20044;-82
2022/04/18 02:04:27;;;;;;;20.13;15.23;;;9.00;62.10;;;;;;5027430;28;20041;-83
2022/04/18 02:06:53;;;;;;;19.98;14.93;;;9.00;62.10;;;;;;5026634;28;20057;-84
2022/04/18 02:09:19;;;;;;;16.65;14.68;;;8.90;61.80;;;;;;5028554;28;20045;-81
2022/04/18 02:11:44;;;;;;;19.30;15.02;;;9.00;62.10;;;;;;5028149;28;20052;-83
2022/04/18 02:14:10;;;;;;;20.73;15.20;;;8.90;61.90;;;;;;5021545;28;20320;-81
2022/04/18 02:16:36;;;;;;;21.05;15.30;;;8.90;61.70;;;;;;5012574;28;20653;-83
2022/04/18 02:19:01;;;;;;;18.85;15.18;;;8.90;61.90;;;;;;5010839;28;20045;-84
2022/04/18 02:21:27;;;;;;;19.75;15.43;;;8.90;62.40;;;;;;5026749;28;20412;-83
2022/04/18 02:23:52;;;;;;;19.75;14.75;;;8.80;62.40;;;;;;5024740;28;20132;-83
2022/04/18 02:26:18;;;;;;;17.65;14.73;;;8.80;62.80;;;;;;5025723;28;20033;-82
2022/04/18 02:28:45;;;;;;;19.17;15.65;;;8.80;62.90;;;;;;5027826;28;20073;-83
2022/04/18 02:31:10;;;;;;;18.02;14.98;;;8.70;63.00;;;;;;5024119;28;20042;-82
2022/04/18 02:33:36;;;;;;;17.95;14.60;;;8.70;63.30;;;;;;5027050;28;20525;-81
2022/04/18 02:36:02;;;;;;;21.10;15.70;;;8.70;63.50;;;;;;5022283;28;20402;-83
2022/04/18 02:38:28;;;;;;;18.73;15.00;;;8.70;64.10;;;;;;5023621;28;20124;-81
2022/04/18 02:40:54;;;;;;;18.15;14.73;;;8.60;64.50;;;;;;5027583;28;20044;-82
2022/04/18 02:43:19;;;;;;;18.55;14.68;;;8.60;64.90;;;;;;5029581;28;20045;-82
2022/04/18 02:45:45;;;;;;;17.70;14.95;;;8.60;65.10;;;;;;5037022;28;20048;-82
2022/04/18 02:48:11;;;;;;;18.60;14.65;;;8.50;65.10;;;;;;5008885;28;20041;-83
2022/04/18 02:50:37;;;;;;;17.10;14.45;;;8.40;65.10;;;;;;5027682;28;20779;-81
2022/04/18 02:53:05;;;;;;;16.33;14.20;;;8.40;66.70;;;;;;5027671;28;20041;-81
2022/04/18 02:55:31;;;;;;;17.48;14.60;;;8.40;65.90;;;;;;5025304;28;20049;-84
2022/04/18 02:57:57;;;;;;;18.05;14.73;;;8.40;65.40;;;;;;5028308;28;20056;-84
2022/04/18 03:00:22;;;;;;;18.48;14.50;;;8.40;65.70;;;;;;5027392;28;20046;-80
2022/04/18 03:02:48;;;;;;;18.23;15.18;;;8.40;65.40;;;;;;5027669;28;20049;-82
2022/04/18 03:05:14;;;;;;;16.73;14.38;;;8.40;65.50;;;;;;5011498;28;20053;-82
2022/04/18 03:07:40;;;;;;;17.52;14.75;;;8.40;65.50;;;;;;5026850;28;20040;-82
2022/04/18 03:10:06;;;;;;;17.73;13.93;;;8.40;65.60;;;;;;5027836;28;20037;-81
2022/04/18 03:12:32;;;;;;;19.88;14.27;;;8.40;65.50;;;;;;5027437;28;20042;-83
2022/04/18 03:14:58;;;;;;;19.52;14.25;;;8.40;65.70;;;;;;5027681;28;20131;-83
2022/04/18 03:17:24;;;;;;;16.17;13.80;;;8.30;65.40;;;;;;5027142;28;20080;-82
2022/04/18 03:19:52;;;;;;;18.17;14.25;;;8.30;65.80;;;;;;5028203;28;20396;-83
2022/04/18 03:22:19;;;;;;;17.85;14.38;;;8.30;66.40;;;;;;5028641;28;20136;-83
2022/04/18 03:24:45;;;;;;;16.77;14.00;;;8.20;67.40;;;;;;5010732;28;20096;-81
2022/04/18 03:27:11;;;;;;;17.58;14.63;;;8.20;66.70;;;;;;5013575;28;20053;-84
2022/04/18 03:29:37;;;;;;;17.60;14.40;;;8.20;67.10;;;;;;5034964;28;20914;-83
2022/04/18 03:32:04;;;;;;;17.35;14.23;;;8.10;67.10;;;;;;5028971;28;20065;-83
2022/04/18 03:34:30;;;;;;;16.48;13.93;;;8.10;67.10;;;;;;5031644;28;20033;-83
2022/04/18 03:39:53;;;;;;;16.75;13.98;;;8.00;67.90;;;;;;5032663;28;20409;-84
2022/04/18 03:42:29;;;;;;;16.58;14.18;;;8.00;68.30;;;;;;5011946;28;20045;-84
2022/04/18 03:44:57;;;;;;;17.17;13.63;;;8.00;68.70;;;;;;5031247;28;20534;-83
2022/04/18 03:47:23;;;;;;;18.17;13.80;;;8.00;69.00;;;;;;5012690;28;20069;-82
2022/04/18 03:49:49;;;;;;;16.30;14.60;;;7.90;68.80;;;;;;5031159;28;20076;-83
2022/04/18 03:52:15;;;;;;;18.02;13.75;;;7.90;69.20;;;;;;5030874;28;20524;-81
2022/04/18 03:54:43;;;;;;;19.35;13.43;;;7.90;69.60;;;;;;5030761;28;20065;-85
2022/04/18 03:57:09;;;;;;;17.70;13.30;;;7.90;69.90;;;;;;5029703;28;20116;-82
2022/04/18 03:59:35;;;;;;;18.00;14.10;;;7.80;69.80;;;;;;5031469;28;20095;-84
2022/04/18 04:02:04;;;;;;;17.10;13.93;;;7.80;70.30;;;;;;5029883;28;20048;-82
2022/04/18 04:04:29;;;;;;;16.42;14.00;;;7.80;70.70;;;;;;5028119;28;20033;-82
2022/04/18 04:06:55;;;;;;;16.40;13.98;;;7.80;70.50;;;;;;5027738;28;20103;-84
2022/04/18 04:09:21;;;;;;;16.88;14.07;;;7.80;71.00;;;;;;5012245;28;20057;-82
2022/04/18 04:11:46;;;;;;;17.63;13.85;;;7.80;70.90;;;;;;5031117;28;20041;-82
2022/04/18 04:14:18;;;;;;;15.63;13.77;;;7.70;70.60;;;;;;5030199;28;20045;-82
2022/04/18 04:16:44;;;;;;;16.27;13.40;;;7.70;71.50;;;;;;5030867;28;20106;-83
2022/04/18 04:19:09;;;;;;;18.08;13.43;;;7.70;71.80;;;;;;5012289;28;20045;-83
2022/04/18 04:21:35;;;;;;;18.70;14.20;;;7.70;72.40;;;;;;5028081;28;20212;-83
2022/04/18 04:24:01;;;;;;;17.60;13.85;;;7.60;72.80;;;;;;5028524;28;20439;-82
2022/04/18 04:26:27;;;;;;;18.98;13.88;;;7.60;73.20;;;;;;5030984;28;20044;-84
2022/04/18 04:28:53;;;;;;;19.23;13.95;;;7.60;73.40;;;;;;5030075;28;20485;-82
2022/04/18 04:31:19;;;;;;;18.67;14.20;;;7.60;74.00;;;;;;5029082;28;20088;-83
2022/04/18 04:33:44;;;;;;;15.82;13.63;;;7.50;74.10;;;;;;5030047;28;20045;-82
2022/04/18 04:36:12;;;;;;;16.67;14.00;;;7.50;74.40;;;;;;5031125;28;20902;-85
2022/04/18 04:38:38;;;;;;;;;;;7.60;74.80;;;;;;5032074;28;20524;-84
2022/04/18 04:41:06;;;;;;;16.77;13.65;;;7.50;77.40;;;;;;5032913;28;19924;-82
2022/04/18 04:43:33;;;;;;;17.05;13.93;;;7.50;75.70;;;;;;5038545;28;20045;-84
2022/04/18 04:46:02;;;;;;;17.25;13.20;;;7.60;75.90;;;;;;5026788;28;20060;-84
2022/04/18 04:48:28;;;;;;;15.65;13.23;;;7.60;76.40;;;;;;5028223;28;20053;-82
2022/04/18 04:50:54;;;;;;;17.02;13.75;;;7.50;78.10;;;;;;5011747;28;20077;-84
2022/04/18 04:53:20;;;;;;;17.40;13.27;;;7.50;77.90;;;;;;5030424;28;21052;-85
2022/04/18 04:55:45;;;;;;;14.98;13.18;;;7.50;78.60;;;;;;5027482;28;20056;-84
2022/04/18 04:58:11;;;;;;;16.33;13.77;;;7.50;79.80;;;;;;5025245;28;20052;-82
2022/04/18 05:00:38;;;;;;;16.95;13.93;;;7.50;80.50;;;;;;5027417;28;20512;-82
2022/04/18 05:03:05;;;;;;;16.08;13.45;;;7.50;81.80;;;;;;5030177;28;20037;-85
2022/04/18 05:05:33;;;;;;;17.90;14.38;;;7.50;82.40;;;;;;5029619;28;20125;-84
2022/04/18 05:07:59;;;;;;;15.65;13.68;;;7.50;83.70;;;;;;5027827;28;20045;-81
2022/04/18 05:10:25;;;;;;;15.73;13.95;;;7.50;83.70;;;;;;5031991;28;20041;-83
2022/04/18 05:12:50;;;;;;;17.13;13.90;;;7.60;84.40;;;;;;5028901;28;20030;-85
2022/04/18 05:15:16;;;;;;;17.38;14.25;;;7.60;86.10;;;;;;5008862;28;20043;-82
2022/04/18 05:17:42;;;;;;;17.02;14.00;;;7.70;86.50;;;;;;5027991;28;20048;-84
2022/04/18 05:20:09;;;;;;;17.48;13.88;;;7.70;86.90;;;;;;5026028;28;20050;-83
2022/04/18 05:22:35;;;;;;;16.00;14.05;;;7.70;86.10;;;;;;5029751;28;20045;-82
2022/04/18 05:25:01;;;;;;;18.50;13.77;;;7.80;85.40;;;;;;5027928;28;20099;-82
2022/04/18 05:27:26;;;;;;;18.05;13.35;;;7.80;85.00;;;;;;5010755;28;20045;-81
2022/04/18 05:29:52;;;;;;;16.65;13.80;;;7.80;85.40;;;;;;5029207;28;20080;-82
2022/04/18 05:32:18;;;;;;;20.63;13.93;;;7.90;85.70;;;;;;5027802;28;20045;-83
2022/04/18 05:34:45;;;;;;;16.35;13.07;;;7.90;85.00;;;;;;5026858;28;20056;-83
2022/04/18 05:37:11;;;;;;;16.65;13.88;;;8.00;85.70;;;;;;5029052;28;20037;-82
2022/04/18 05:39:36;;;;;;;17.90;13.98;;;8.00;86.40;;;;;;5025905;28;20049;-81
2022/04/18 05:42:03;;;;;;;16.98;13.32;;;8.10;87.00;;;;;;5009048;28;20107;-82
2022/04/18 05:44:32;;;;;;;18.48;13.45;;;8.10;87.80;;;;;;5029594;28;20507;-84
2022/04/18 05:46:57;;;;;;;16.45;14.20;;;8.20;87.60;;;;;;5027850;28;20079;-83
2022/04/18 05:49:23;;;;;;;17.23;14.00;;;8.20;86.70;;;;;;5039903;28;20045;-81
2022/04/18 05:51:49;;;;;;;17.38;14.25;;;8.30;86.10;;;;;;5055600;28;20029;-82
2022/04/18 05:54:15;;;;;;;17.02;13.38;;;8.40;85.10;;;;;;5050270;28;20061;-83
2022/04/18 05:56:43;;;;;;;17.40;13.75;;;8.40;84.80;;;;;;5045594;28;20041;-83
2022/04/18 05:59:09;;;;;;;18.65;13.65;;;8.50;84.00;;;;;;5029678;28;20042;-82
2022/04/18 06:01:35;;;;;;;16.92;13.50;;;8.50;83.70;;;;;;5029295;28;20041;-81
2022/04/18 06:04:02;;;;;;;19.00;13.77;;;8.60;84.90;;;;;;5028204;28;20045;-83
2022/04/18 06:06:27;;;;;;;16.15;12.93;;;8.60;84.00;;;;;;5028591;28;20050;-85
2022/04/18 06:08:59;;;;;;;16.08;13.15;;;8.70;82.20;;;;;;5016541;28;20079;-82
2022/04/18 06:11:25;;;;;;;16.50;13.63;;;8.80;84.00;;;;;;5034348;28;20076;-82
2022/04/18 06:13:51;;;;;;;15.57;12.82;;;8.80;83.80;;;;;;5027651;28;20456;-84
2022/04/18 06:16:16;;;;;;;15.98;13.43;;;8.90;83.20;;;;;;5027152;28;20045;-82
2022/04/18 06:18:42;;;;;;;17.20;13.38;;;9.00;83.10;;;;;;5026873;28;20041;-81
2022/04/18 06:21:11;;;;;;;18.92;12.93;;;9.00;83.70;;;;;;5026576;28;20389;-80
2022/04/18 06:23:36;;;;;;;17.67;12.50;;;9.10;82.90;;;;;;5029330;28;20037;-81
2022/04/18 06:26:02;;;;;;;15.45;12.73;;;9.20;82.20;;;;;;5028618;28;20133;-85
2022/04/18 06:28:27;;;;;;;17.02;13.00;;;9.30;82.30;;;;;;5007699;28;20132;-83
2022/04/18 06:30:53;;;;;;;14.75;12.45;;;9.30;81.40;;;;;;5011835;28;20037;-83
2022/04/18 06:33:28;;;;;;;14.55;11.77;;;9.40;79.30;;;;;;5025291;28;20041;-83
2022/04/18 06:35:55;;;;;;;15.45;12.05;;;9.50;78.00;;;;;;5026017;28;20094;-83
2022/04/18 06:38:21;;;;;;;15.43;12.40;;;9.60;77.30;;;;;;5005142;28;20063;-83
2022/04/18 06:40:46;;;;;;;14.45;11.77;;;9.70;78.80;;;;;;5026154;28;20049;-83
2022/04/18 06:43:15;;;;;;;14.30;11.13;;;9.80;77.50;;;;;;5009544;28;20045;-83
2022/04/18 06:45:40;;;;;;;14.93;11.80;;;9.90;76.10;;;;;;5008497;28;20048;-83
2022/04/18 06:48:06;;;;;;;16.13;11.77;;;9.90;75.20;;;;;;5010635;28;20045;-85
2022/04/18 06:50:32;;;;;;;13.48;11.23;;;10.00;73.90;;;;;;5010147;28;20080;-82
2022/04/18 06:52:58;;;;;;;13.02;10.93;;;10.10;74.40;;;;;;5020132;28;20088;-82
2022/04/18 06:55:23;;;;;;;15.45;10.25;;;10.20;73.00;;;;;;5026111;28;20045;-82
2022/04/18 06:57:50;;;;;;;14.48;10.98;;;10.20;72.00;;;;;;5026101;28;20048;-82
2022/04/18 07:00:16;;;;;;;13.60;10.45;;;10.30;70.60;;;;;;5012456;28;20092;-81
2022/04/18 07:02:50;;;;;;;12.85;10.60;;;10.40;69.70;;;;;;5011786;28;20508;-82
2022/04/18 07:05:16;;;;;;;14.55;10.48;;;10.50;69.50;;;;;;5026914;28;20673;-81
2022/04/18 07:07:42;;;;;;;11.70;10.05;;;10.60;69.90;;;;;;5023325;28;20069;-82
2022/04/18 07:10:08;;;;;;;11.23;10.02;;;10.70;69.00;;;;;;5015351;28;20045;-81
2022/04/18 07:12:34;;;;;;;13.98;10.38;;;10.70;67.50;;;;;;5011492;28;20056;-81
2022/04/18 07:14:59;;;;;;;14.65;10.45;;;10.80;67.40;;;;;;5031960;28;20104;-81
2022/04/18 07:17:25;;;;;;;12.40;10.50;;;10.80;68.00;;;;;;5011570;28;20053;-81
2022/04/18 07:19:51;;;;;;;11.55;10.27;;;10.90;66.80;;;;;;5029060;28;20044;-81
2022/04/18 07:22:16;;;;;;;12.57;10.50;;;11.00;68.40;;;;;;5028570;28;20045;-81
2022/04/18 07:24:42;;;;;;;13.93;10.18;;;11.10;68.20;;;;;;5030109;28;20089;-81
2022/04/18 07:27:08;;;;;;;12.75;10.52;;;11.20;67.20;;;;;;5011812;28;20072;-81
2022/04/18 07:29:33;;;;;;;14.50;10.32;;;11.30;66.70;;;;;;5030681;28;20799;-81
2022/04/18 07:31:59;;;;;;;13.32;10.25;;;11.40;66.80;;;;;;5012286;28;20037;-82
2022/04/18 07:34:25;;;;;;;12.32;9.90;;;11.40;66.50;;;;;;5007622;28;20034;-86
2022/04/18 07:36:51;;;;;;;12.93;10.55;;;11.50;65.90;;;;;;5015181;28;20115;-83
2022/04/18 07:39:16;;;;;;;10.85;9.70;;;11.60;64.60;;;;;;5030000;28;20106;-80
2022/04/18 07:41:42;;;;;;;12.05;9.18;;;11.70;64.50;;;;;;5030472;28;20049;-85
2022/04/18 07:44:08;;;;;;;12.05;9.40;;;11.80;64.00;;;;;;5012000;28;20590;-86
2022/04/18 07:46:34;;;;;;;13.40;9.57;;;11.80;63.00;;;;;;5027208;28;20037;-80
2022/04/18 07:49:04;;;;;;;13.25;9.40;;;11.90;62.40;;;;;;5029582;28;20396;-81
2022/04/18 07:51:36;;;;;;;11.63;9.15;;;12.00;61.40;;;;;;5028312;28;20048;-82
2022/04/18 07:54:06;;;;;;;12.23;9.45;;;12.00;61.70;;;;;;5024724;28;20484;-82
2022/04/18 07:56:33;;;;;;;12.90;9.48;;;12.10;61.50;;;;;;5045675;28;20083;-78
2022/04/18 07:58:59;;;;;;;11.93;9.27;;;12.20;61.30;;;;;;5051435;28;20099;-83
2022/04/18 08:01:25;;;;;;;11.35;8.85;;;12.20;61.40;;;;;;5012663;28;20041;-84
2022/04/18 08:03:51;;;;;;;12.52;9.48;;;12.30;62.00;;;;;;5031905;28;20492;-84
2022/04/18 08:06:17;;;;;;;10.70;8.85;;;12.40;61.90;;;;;;5032114;28;20048;-83
2022/04/18 08:08:43;;;;;;;11.35;9.18;;;12.50;60.70;;;;;;5031631;28;20392;-82
2022/04/18 08:11:12;;;;;;;13.15;9.60;;;12.60;60.60;;;;;;5013069;28;20045;-83
2022/04/18 08:13:45;;;;;;;12.20;8.98;;;12.60;60.50;;;;;;5031410;28;20514;-85
2022/04/18 08:16:12;;;;;;;11.80;8.52;;;12.80;60.40;;;;;;5012599;28;20080;-81
2022/04/18 08:18:39;;;;;;;10.48;8.68;;;12.80;59.80;;;;;;5031424;28;20053;-82
2022/04/18 08:21:08;;;;;;;10.85;8.45;;;13.00;59.80;;;;;;5032149;28;20072;-83
2022/04/18 08:23:37;;;;;;;10.73;7.82;;;13.00;58.70;;;;;;5042111;28;20110;-81
2022/04/18 08:26:05;;;;;;;9.77;7.32;;;13.20;59.10;;;;;;5008116;28;20080;-83
2022/04/18 08:28:31;;;;;;;11.30;7.45;;;13.30;59.20;;;;;;5032021;28;20041;-83
2022/04/18 08:31:01;;;;;;;10.90;6.78;;;13.30;58.20;;;;;;5031788;28;20485;-84
2022/04/18 08:33:29;;;;;;;9.88;7.00;;;13.50;57.20;;;;;;5042635;28;20177;-82
2022/04/18 08:35:57;;;;;;;10.95;8.00;;;13.50;56.00;;;;;;5033922;28;20041;-78
2022/04/18 08:38:23;;;;;;;;;;;13.70;55.00;;;;;;5047955;28;20045;-81
2022/04/18 08:40:50;;;;;;;9.20;7.47;;;13.70;54.90;;;;;;5031788;28;20410;-81
2022/04/18 08:43:19;;;;;;;11.13;7.32;;;13.80;54.70;;;;;;5030761;28;20117;-81
2022/04/18 08:45:45;;;;;;;12.73;8.35;;;13.80;54.80;;;;;;5030186;28;20049;-75
2022/04/18 08:53:45;;;;;;;9.10;7.70;;;14.10;53.30;;;;;;5012239;28;20588;-81
2022/04/18 08:56:11;;;;;;;9.65;7.50;;;14.10;52.90;;;;;;5028900;28;20049;-76
2022/04/18 08:58:36;;;;;;;10.65;8.30;;;14.20;52.60;;;;;;5012675;28;20050;-79
2022/04/18 09:01:03;;;;;;;11.23;8.02;;;14.20;52.40;;;;;;5029062;28;20500;-77
2022/04/18 09:03:29;;;;;;;10.82;9.02;;;14.30;52.00;;;;;;5003065;28;20045;-81
2022/04/18 09:06:06;;;;;;;13.65;8.15;;;14.30;52.30;;;;;;5009113;28;20045;-78
2022/04/18 09:08:46;;;;;;;10.77;8.95;;;14.40;52.00;;;;;;5013251;28;20037;-80
2022/04/18 09:11:24;;;;;;;11.20;8.20;;;14.50;51.70;;;;;;5021579;28;20125;-78
2022/04/18 09:13:50;;;;;;;9.95;7.72;;;14.50;51.80;;;;;;5018852;28;20094;-77
2022/04/18 09:16:17;;;;;;;11.63;9.13;;;14.60;52.30;;;;;;5012141;28;20042;-78
2022/04/18 09:18:43;;;;;;;13.40;9.65;;;14.70;52.30;;;;;;5030618;28;20064;-78
2022/04/18 09:21:11;;;;;;;13.63;10.57;;;14.80;51.50;;;;;;5025504;28;20128;-77
2022/04/18 09:23:43;;;;;;;13.52;9.20;;;14.90;51.70;;;;;;5029611;28;20206;-82
2022/04/18 09:26:09;;;;;;;10.68;8.30;;;15.00;51.60;;;;;;5029974;28;20067;-81
2022/04/18 09:28:36;;;;;;;11.80;8.23;;;15.00;51.80;;;;;;5042240;28;20473;-82
2022/04/18 09:31:08;;;;;;;13.73;8.30;;;15.10;51.60;;;;;;5034735;28;20068;-80
2022/04/18 09:33:44;;;;;;;9.60;6.63;;;15.20;52.00;;;;;;5018237;28;20033;-83
2022/04/18 09:36:18;;;;;;;10.02;6.38;;;15.30;54.30;;;;;;5030389;28;20104;-83
2022/04/18 09:38:57;;;;;;;9.05;7.45;;;15.40;54.20;;;;;;5030496;28;20083;-82
2022/04/18 09:41:27;;;;;;;10.07;7.07;;;15.50;53.10;;;;;;5029338;28;20041;-82
2022/04/18 09:43:55;;;;;;;10.93;7.10;;;15.60;52.40;;;;;;5040122;28;20481;-82
2022/04/18 09:46:20;;;;;;;;;;;15.70;52.70;;;;;;5027197;28;20056;-80
2022/04/18 09:48:48;;;;;;;10.40;7.68;;;15.70;52.70;;;;;;5039108;28;19965;-80
2022/04/18 09:51:27;;;;;;;9.57;7.00;;;15.80;51.20;;;;;;5025472;28;20049;-83
2022/04/18 09:53:54;;;;;;;11.65;7.45;;;15.80;51.40;;;;;;5041640;28;20086;-82
2022/04/18 09:56:22;;;;;;;10.15;7.68;;;15.90;51.30;;;;;;5032840;28;20045;-79
2022/04/18 09:58:52;;;;;;;8.38;6.63;;;16.00;50.60;;;;;;5023492;28;20512;-83
2022/04/18 10:01:19;;;;;;;11.05;7.15;;;16.00;50.80;;;;;;5009175;28;20783;-79
2022/04/18 10:03:46;;;;;;;9.38;7.18;;;16.10;50.00;;;;;;5016996;28;20041;-82
2022/04/18 10:06:12;;;;;;;9.95;6.90;;;16.20;49.80;;;;;;5048798;28;20416;-82
2022/04/18 10:08:38;;;;;;;9.35;6.47;;;16.30;49.80;;;;;;5033719;28;20049;-81
2022/04/18 10:11:11;;;;;;;8.43;6.50;;;16.30;50.50;;;;;;5028586;28;20045;-82
2022/04/18 10:13:37;;;;;;;8.15;6.40;;;16.40;49.80;;;;;;5034829;28;20045;-75
2022/04/18 10:16:07;;;;;;;9.18;6.22;;;16.40;49.80;;;;;;5002810;28;20049;-71
2022/04/18 10:18:48;;;;;;;9.43;6.20;;;16.50;50.20;;;;;;5005988;28;20566;-78
2022/04/18 10:21:31;;;;;;;7.45;5.75;;;16.60;50.10;;;;;;5029694;28;20500;-74
2022/04/18 10:24:12;;;;;;;9.35;6.68;;;16.60;49.80;;;;;;5032793;28;20040;-72
2022/04/18 10:26:50;;;;;;;6.95;5.60;;;16.70;49.20;;;;;;5023589;28;20095;-72
2022/04/18 10:29:25;;;;;;;7.07;5.20;;;16.80;49.30;;;;;;5020314;28;20057;-72
2022/04/18 10:31:53;;;;;;;6.88;5.22;;;16.80;47.20;;;;;;5027212;28;20547;-73
2022/04/18 10:34:23;;;;;;;6.57;5.03;;;16.90;47.20;;;;;;5023965;28;20125;-72
2022/04/18 10:36:54;;;;;;;8.30;5.40;;;17.00;45.50;;;;;;5029019;28;20041;-72
2022/04/18 10:39:20;;;;;;;7.47;5.35;;;17.00;46.20;;;;;;5020335;28;20049;-72
2022/04/18 10:41:47;;;;;;;7.32;5.95;;;17.00;46.20;;;;;;5007551;28;20641;-73
2022/04/18 10:44:14;;;;;;;;;;;17.10;46.50;;;;;;5028086;28;20049;-74
2022/04/18 10:46:53;;;;;;;6.43;4.28;;;17.10;44.70;;;;;;5035189;28;19975;-72
2022/04/18 10:49:31;;;;;;;6.30;4.95;;;17.20;45.40;;;;;;5030918;28;20064;-73
2022/04/18 10:52:05;;;;;;;6.88;5.32;;;17.20;44.70;;;;;;5029478;28;20045;-74
2022/04/18 10:54:31;;;;;;;6.43;5.05;;;17.40;45.20;;;;;;5017390;28;20124;-74
2022/04/18 10:57:05;;;;;;;6.43;4.93;;;17.40;44.90;;;;;;5028359;28;20037;-74
2022/04/18 10:59:46;;;;;;;7.82;4.72;;;17.50;44.90;;;;;;5004116;28;20046;-74
2022/04/18 11:02:49;;;;;;;8.10;4.78;;;17.60;44.40;;;;;;5027891;28;20056;-73
2022/04/18 11:05:15;;;;;;;13.77;4.75;;;17.70;44.10;;;;;;4964260;28;20859;-75
2022/04/18 11:07:43;;;;;;;7.85;5.28;;;17.70;44.50;;;;;;5011121;28;20053;-73
2022/04/18 11:10:23;;;;;;;8.45;4.80;;;17.80;44.60;;;;;;5028189;28;20045;-74
2022/04/18 11:12:50;;;;;;;7.43;5.05;;;17.80;44.70;;;;;;5011265;28;20056;-74
2022/04/18 11:15:17;;;;;;;8.48;4.97;;;17.90;44.00;;;;;;5028411;28;20047;-74
2022/04/18 11:17:43;;;;;;;7.30;5.38;;;17.90;43.70;;;;;;5008557;28;20071;-73
2022/04/18 11:20:28;;;;;;;7.68;4.93;;;18.00;42.80;;;;;;5027700;28;20465;-73
2022/04/18 11:23:19;;;;;;;5.90;4.40;;;18.00;43.60;;;;;;5039137;28;20037;-73
2022/04/18 11:25:52;;;;;;;7.78;5.20;;;18.10;43.20;;;;;;5023672;28;20093;-73
2022/04/18 11:28:18;;;;;;;7.47;5.28;;;18.20;42.30;;;;;;5006831;28;20084;-72
2022/04/18 11:30:43;;;;;;;8.65;5.13;;;18.20;41.50;;;;;;5035545;28;20481;-73
2022/04/18 11:33:09;;;;;;;6.38;4.93;;;18.10;40.80;;;;;;5019721;28;20053;-72
2022/04/18 11:35:35;;;;;;;7.90;5.20;;;18.10;41.00;;;;;;5012732;28;20037;-71
2022/04/18 11:38:07;;;;;;;6.93;5.18;;;18.10;41.70;;;;;;5018571;28;20041;-72
2022/04/18 11:40:40;;;;;;;7.45;5.53;;;18.20;41.60;;;;;;5009152;28;20128;-71
2022/04/18 11:43:11;;;;;;;6.60;5.38;;;18.30;41.30;;;;;;5021977;28;20489;-71
2022/04/18 11:45:36;;;;;;;7.05;4.90;;;18.30;41.80;;;;;;4999660;28;20041;-71
2022/04/18 11:48:04;;;;;;;6.82;5.03;;;18.40;41.90;;;;;;5012675;28;20507;-71
2022/04/18 11:50:30;;;;;;;6.88;5.43;;;18.50;42.60;;;;;;5029241;28;20037;-72
2022/04/18 11:53:04;;;;;;;5.78;4.93;;;18.50;42.40;;;;;;5030271;28;20069;-71
2022/04/18 11:55:30;;;;;;;7.13;4.75;;;18.60;41.30;;;;;;5012312;28;20187;-71
2022/04/18 11:57:56;;;;;;;7.28;5.32;;;18.60;41.40;;;;;;5010829;28;20061;-71
2022/04/18 12:08:47;;;;;;;6.15;4.70;;;18.80;40.80;;;;;;5021127;28;20040;-74
2022/04/18 12:11:13;;;;;;;6.95;4.97;;;18.80;40.80;;;;;;5037714;28;20064;-75
2022/04/18 12:13:47;;;;;;;7.43;5.00;;;18.90;40.30;;;;;;5030409;28;20056;-74
2022/04/18 12:16:19;;;;;;;9.63;5.13;;;19.00;41.20;;;;;;5033395;28;20053;-78
2022/04/18 12:18:46;;;;;;;6.93;5.05;;;19.00;40.50;;;;;;5030172;28;20030;-78
2022/04/18 12:21:15;;;;;;;9.10;5.28;;;19.00;39.60;;;;;;5011053;28;20076;-78
2022/04/18 12:23:40;;;;;;;6.28;4.90;;;19.00;39.80;;;;;;5031442;28;20132;-78
2022/04/18 12:26:14;;;;;;;8.38;5.20;;;19.00;40.30;;;;;;5013449;28;20132;-78
2022/04/18 12:28:39;;;;;;;9.32;5.57;;;19.10;39.40;;;;;;5011661;28;20484;-78
2022/04/18 12:31:12;;;;;;;8.52;5.50;;;19.10;39.70;;;;;;5011820;28;20048;-78
2022/04/18 12:33:48;;;;;;;6.88;5.10;;;19.20;39.30;;;;;;5013917;28;20404;-78
2022/04/18 12:36:33;;;;;;;6.22;4.78;;;19.30;39.30;;;;;;5029666;28;20103;-78
2022/04/18 12:39:03;;;;;;;6.68;5.20;;;19.30;39.90;;;;;;5028205;28;20456;-77
2022/04/18 12:41:35;;;;;;;6.35;4.95;;;19.30;40.10;;;;;;5030181;28;20054;-78
2022/04/18 12:44:08;;;;;;;6.13;4.75;;;19.40;39.40;;;;;;5011460;28;20042;-77
2022/04/18 12:46:34;;;;;;;7.85;5.40;;;19.40;39.30;;;;;;5030951;28;20456;-77
2022/04/18 12:49:08;;;;;;;6.90;5.60;;;19.40;38.50;;;;;;5028689;28;20085;-77
2022/04/18 12:51:39;;;;;;;6.75;4.38;;;19.40;37.30;;;;;;5013447;28;20459;-77
2022/04/18 12:54:17;;;;;;;8.63;4.82;;;19.40;38.90;;;;;;5030444;28;20041;-77
2022/04/18 12:56:49;;;;;;;7.60;5.38;;;19.60;38.80;;;;;;5012177;28;20080;-77
2022/04/18 12:59:30;;;;;;;8.95;5.47;;;19.60;38.50;;;;;;5011687;28;20046;-78
2022/04/18 13:02:08;;;;;;;6.85;5.10;;;19.70;38.20;;;;;;5044041;28;20041;-77
2022/04/18 13:04:34;;;;;;;6.63;5.20;;;19.70;37.70;;;;;;5034500;28;20095;-77
2022/04/18 13:07:03;;;;;;;6.85;5.40;;;19.70;38.80;;;;;;5031770;28;20443;-77